Terminal Aerodrome Forecast
Issued by NWS

Home | Current Version | Previous Version | Text Only | Print | Product List | Glossary On
Versions: 1 2 3 4 5 6 7 8 9 10 11 12
000
FTUS46 KLOX 191700
TAFVNY
TAF
KVNY 191732Z 1918/2018 00000KT P6SM SKC
     FM191900 14009KT P6SM SKC
     FM200300 VRB03KT P6SM SKC
     FM201000 VRB03KT 5SM BR OVC010=

USA.gov is the U.S. government's official web portal to all federal, state and local government web resources and services.